sensor_id;sensor_type;location;lat;lon;timestamp;P1;durP1;ratioP1;P2;durP2;ratioP2
31728;SDS011;18309;43.658;1.312;2023-07-29T00:02:22;7.72;;;3.80;;
31728;SDS011;18309;43.658;1.312;2023-07-29T00:04:47;5.78;;;3.38;;
31728;SDS011;18309;43.658;1.312;2023-07-29T00:07:13;4.47;;;2.97;;
31728;SDS011;18309;43.658;1.312;2023-07-29T00:09:39;8.85;;;3.67;;
31728;SDS011;18309;43.658;1.312;2023-07-29T00:12:04;7.50;;;4.20;;
31728;SDS011;18309;43.658;1.312;2023-07-29T00:14:30;7.43;;;4.10;;
31728;SDS011;18309;43.658;1.312;2023-07-29T00:16:56;6.15;;;3.95;;
31728;SDS011;18309;43.658;1.312;2023-07-29T00:19:21;7.65;;;3.45;;
31728;SDS011;18309;43.658;1.312;2023-07-29T00:21:48;5.38;;;3.55;;
31728;SDS011;18309;43.658;1.312;2023-07-29T00:24:14;12.50;;;4.05;;
31728;SDS011;18309;43.658;1.312;2023-07-29T00:26:40;9.18;;;3.90;;
31728;SDS011;18309;43.658;1.312;2023-07-29T00:29:05;7.32;;;3.95;;
31728;SDS011;18309;43.658;1.312;2023-07-29T00:31:31;9.77;;;4.57;;
31728;SDS011;18309;43.658;1.312;2023-07-29T00:33:57;8.85;;;4.38;;
31728;SDS011;18309;43.658;1.312;2023-07-29T00:36:23;10.20;;;4.18;;
31728;SDS011;18309;43.658;1.312;2023-07-29T00:38:49;7.50;;;4.47;;
31728;SDS011;18309;43.658;1.312;2023-07-29T00:41:14;7.30;;;4.45;;
31728;SDS011;18309;43.658;1.312;2023-07-29T00:43:40;11.65;;;4.38;;
31728;SDS011;18309;43.658;1.312;2023-07-29T00:46:06;9.60;;;4.40;;
31728;SDS011;18309;43.658;1.312;2023-07-29T00:48:34;12.10;;;4.10;;
31728;SDS011;18309;43.658;1.312;2023-07-29T00:50:59;11.15;;;4.53;;
31728;SDS011;18309;43.658;1.312;2023-07-29T00:53:25;9.02;;;4.90;;
31728;SDS011;18309;43.658;1.312;2023-07-29T00:55:51;6.78;;;4.70;;
31728;SDS011;18309;43.658;1.312;2023-07-29T00:58:17;6.40;;;4.22;;
31728;SDS011;18309;43.658;1.312;2023-07-29T01:00:44;9.98;;;4.60;;
31728;SDS011;18309;43.658;1.312;2023-07-29T01:03:10;8.75;;;4.32;;
31728;SDS011;18309;43.658;1.312;2023-07-29T01:06:18;9.65;;;4.50;;
31728;SDS011;18309;43.658;1.312;2023-07-29T01:08:31;8.93;;;4.60;;
31728;SDS011;18309;43.658;1.312;2023-07-29T01:11:06;7.10;;;4.78;;
31728;SDS011;18309;43.658;1.312;2023-07-29T01:13:50;8.63;;;4.70;;
31728;SDS011;18309;43.658;1.312;2023-07-29T01:17:07;13.98;;;5.55;;
31728;SDS011;18309;43.658;1.312;2023-07-29T01:19:29;11.18;;;4.97;;
31728;SDS011;18309;43.658;1.312;2023-07-29T01:22:10;12.27;;;4.72;;
31728;SDS011;18309;43.658;1.312;2023-07-29T01:24:37;8.93;;;4.80;;
31728;SDS011;18309;43.658;1.312;2023-07-29T01:27:04;8.60;;;5.30;;
31728;SDS011;18309;43.658;1.312;2023-07-29T01:29:30;11.23;;;5.20;;
31728;SDS011;18309;43.658;1.312;2023-07-29T01:31:56;22.33;;;5.82;;
31728;SDS011;18309;43.658;1.312;2023-07-29T01:34:53;7.72;;;5.35;;
31728;SDS011;18309;43.658;1.312;2023-07-29T01:37:22;16.60;;;5.70;;
31728;SDS011;18309;43.658;1.312;2023-07-29T01:39:51;11.07;;;5.45;;
31728;SDS011;18309;43.658;1.312;2023-07-29T01:44:47;11.77;;;4.78;;
31728;SDS011;18309;43.658;1.312;2023-07-29T01:47:13;11.35;;;5.32;;
31728;SDS011;18309;43.658;1.312;2023-07-29T01:49:39;9.02;;;5.38;;
31728;SDS011;18309;43.658;1.312;2023-07-29T01:52:04;11.18;;;5.10;;
31728;SDS011;18309;43.658;1.312;2023-07-29T01:54:30;10.05;;;4.88;;
31728;SDS011;18309;43.658;1.312;2023-07-29T01:56:56;12.52;;;5.15;;
31728;SDS011;18309;43.658;1.312;2023-07-29T01:59:21;8.57;;;5.07;;
31728;SDS011;18309;43.658;1.312;2023-07-29T02:01:47;11.40;;;5.00;;
31728;SDS011;18309;43.658;1.312;2023-07-29T02:04:13;12.55;;;6.93;;
31728;SDS011;18309;43.658;1.312;2023-07-29T02:06:39;13.73;;;6.25;;
31728;SDS011;18309;43.658;1.312;2023-07-29T02:09:05;9.85;;;5.95;;
31728;SDS011;18309;43.658;1.312;2023-07-29T02:11:31;11.48;;;6.13;;
31728;SDS011;18309;43.658;1.312;2023-07-29T02:13:56;11.40;;;5.60;;
31728;SDS011;18309;43.658;1.312;2023-07-29T02:16:23;8.48;;;5.65;;
31728;SDS011;18309;43.658;1.312;2023-07-29T02:18:48;22.30;;;5.82;;
31728;SDS011;18309;43.658;1.312;2023-07-29T02:21:15;6.85;;;4.80;;
31728;SDS011;18309;43.658;1.312;2023-07-29T02:23:41;11.15;;;5.28;;
31728;SDS011;18309;43.658;1.312;2023-07-29T02:26:06;8.23;;;4.68;;
31728;SDS011;18309;43.658;1.312;2023-07-29T02:28:32;11.63;;;4.93;;
31728;SDS011;18309;43.658;1.312;2023-07-29T02:33:47;10.07;;;4.53;;
31728;SDS011;18309;43.658;1.312;2023-07-29T02:36:13;11.30;;;4.40;;
31728;SDS011;18309;43.658;1.312;2023-07-29T02:38:39;6.93;;;4.32;;
31728;SDS011;18309;43.658;1.312;2023-07-29T02:41:05;10.07;;;4.05;;
31728;SDS011;18309;43.658;1.312;2023-07-29T02:43:31;7.53;;;4.50;;
31728;SDS011;18309;43.658;1.312;2023-07-29T02:45:57;13.38;;;4.65;;
31728;SDS011;18309;43.658;1.312;2023-07-29T02:48:22;7.82;;;4.57;;
31728;SDS011;18309;43.658;1.312;2023-07-29T02:50:48;7.90;;;5.13;;
31728;SDS011;18309;43.658;1.312;2023-07-29T02:53:14;5.93;;;4.10;;
31728;SDS011;18309;43.658;1.312;2023-07-29T02:55:40;8.68;;;5.13;;
31728;SDS011;18309;43.658;1.312;2023-07-29T02:58:06;6.28;;;4.32;;
31728;SDS011;18309;43.658;1.312;2023-07-29T03:00:32;10.85;;;4.60;;
31728;SDS011;18309;43.658;1.312;2023-07-29T03:02:58;8.38;;;4.40;;
31728;SDS011;18309;43.658;1.312;2023-07-29T03:05:26;5.85;;;4.40;;
31728;SDS011;18309;43.658;1.312;2023-07-29T03:07:52;6.15;;;4.03;;
31728;SDS011;18309;43.658;1.312;2023-07-29T03:10:18;10.40;;;4.60;;
31728;SDS011;18309;43.658;1.312;2023-07-29T03:12:44;10.05;;;4.22;;
31728;SDS011;18309;43.658;1.312;2023-07-29T03:15:09;9.38;;;5.18;;
31728;SDS011;18309;43.658;1.312;2023-07-29T03:17:35;8.48;;;5.53;;
31728;SDS011;18309;43.658;1.312;2023-07-29T03:20:01;11.63;;;4.85;;
31728;SDS011;18309;43.658;1.312;2023-07-29T03:22:26;7.60;;;4.65;;
31728;SDS011;18309;43.658;1.312;2023-07-29T03:24:52;11.85;;;4.50;;
31728;SDS011;18309;43.658;1.312;2023-07-29T03:27:18;9.43;;;4.43;;
31728;SDS011;18309;43.658;1.312;2023-07-29T03:29:43;9.85;;;4.88;;
31728;SDS011;18309;43.658;1.312;2023-07-29T03:32:09;9.23;;;4.50;;
31728;SDS011;18309;43.658;1.312;2023-07-29T03:34:34;11.00;;;5.25;;
31728;SDS011;18309;43.658;1.312;2023-07-29T03:37:00;13.85;;;5.20;;
31728;SDS011;18309;43.658;1.312;2023-07-29T03:39:26;9.80;;;5.45;;
31728;SDS011;18309;43.658;1.312;2023-07-29T03:41:52;7.95;;;5.15;;
31728;SDS011;18309;43.658;1.312;2023-07-29T03:44:17;8.57;;;4.97;;
31728;SDS011;18309;43.658;1.312;2023-07-29T03:46:44;7.07;;;4.80;;
31728;SDS011;18309;43.658;1.312;2023-07-29T03:49:10;7.90;;;4.57;;
31728;SDS011;18309;43.658;1.312;2023-07-29T03:51:36;7.50;;;4.82;;
31728;SDS011;18309;43.658;1.312;2023-07-29T03:54:01;10.20;;;4.57;;
31728;SDS011;18309;43.658;1.312;2023-07-29T03:56:27;7.63;;;5.28;;
31728;SDS011;18309;43.658;1.312;2023-07-29T03:58:52;13.75;;;5.72;;
31728;SDS011;18309;43.658;1.312;2023-07-29T04:01:18;14.20;;;4.90;;
31728;SDS011;18309;43.658;1.312;2023-07-29T04:03:45;8.50;;;5.07;;
31728;SDS011;18309;43.658;1.312;2023-07-29T04:06:14;9.88;;;4.90;;
31728;SDS011;18309;43.658;1.312;2023-07-29T04:08:39;18.75;;;5.70;;
31728;SDS011;18309;43.658;1.312;2023-07-29T04:11:06;11.38;;;5.43;;
31728;SDS011;18309;43.658;1.312;2023-07-29T04:13:32;7.60;;;5.03;;
31728;SDS011;18309;43.658;1.312;2023-07-29T04:15:58;11.63;;;4.95;;
31728;SDS011;18309;43.658;1.312;2023-07-29T04:18:23;7.63;;;4.85;;
31728;SDS011;18309;43.658;1.312;2023-07-29T04:20:49;8.70;;;4.95;;
31728;SDS011;18309;43.658;1.312;2023-07-29T04:23:14;11.05;;;5.05;;
31728;SDS011;18309;43.658;1.312;2023-07-29T04:25:40;8.10;;;5.20;;
31728;SDS011;18309;43.658;1.312;2023-07-29T04:28:06;14.13;;;5.03;;
31728;SDS011;18309;43.658;1.312;2023-07-29T04:30:32;13.43;;;4.97;;
31728;SDS011;18309;43.658;1.312;2023-07-29T04:32:57;19.38;;;5.38;;
31728;SDS011;18309;43.658;1.312;2023-07-29T04:35:23;8.98;;;4.47;;
31728;SDS011;18309;43.658;1.312;2023-07-29T04:37:48;9.35;;;4.82;;
31728;SDS011;18309;43.658;1.312;2023-07-29T04:40:15;11.73;;;5.75;;
31728;SDS011;18309;43.658;1.312;2023-07-29T04:42:40;8.57;;;4.72;;
31728;SDS011;18309;43.658;1.312;2023-07-29T04:45:06;9.93;;;5.25;;
31728;SDS011;18309;43.658;1.312;2023-07-29T04:47:32;5.82;;;4.28;;
31728;SDS011;18309;43.658;1.312;2023-07-29T04:49:57;10.18;;;4.82;;
31728;SDS011;18309;43.658;1.312;2023-07-29T04:52:24;13.15;;;5.63;;
31728;SDS011;18309;43.658;1.312;2023-07-29T04:54:50;10.35;;;4.35;;
31728;SDS011;18309;43.658;1.312;2023-07-29T04:57:16;10.23;;;4.40;;
31728;SDS011;18309;43.658;1.312;2023-07-29T04:59:41;9.18;;;4.35;;
31728;SDS011;18309;43.658;1.312;2023-07-29T05:02:07;12.10;;;5.03;;
31728;SDS011;18309;43.658;1.312;2023-07-29T05:04:33;11.02;;;5.05;;
31728;SDS011;18309;43.658;1.312;2023-07-29T05:06:58;8.52;;;4.85;;
31728;SDS011;18309;43.658;1.312;2023-07-29T05:09:24;7.88;;;4.72;;
31728;SDS011;18309;43.658;1.312;2023-07-29T05:11:50;8.85;;;5.88;;
31728;SDS011;18309;43.658;1.312;2023-07-29T05:14:17;7.50;;;4.88;;
31728;SDS011;18309;43.658;1.312;2023-07-29T05:16:43;10.32;;;5.18;;
31728;SDS011;18309;43.658;1.312;2023-07-29T05:19:09;7.45;;;5.22;;
31728;SDS011;18309;43.658;1.312;2023-07-29T05:21:35;8.98;;;5.15;;
31728;SDS011;18309;43.658;1.312;2023-07-29T05:24:02;8.15;;;4.90;;
31728;SDS011;18309;43.658;1.312;2023-07-29T05:26:27;7.80;;;4.88;;
31728;SDS011;18309;43.658;1.312;2023-07-29T05:28:53;10.50;;;5.47;;
31728;SDS011;18309;43.658;1.312;2023-07-29T05:31:19;8.70;;;5.45;;
31728;SDS011;18309;43.658;1.312;2023-07-29T05:33:44;9.75;;;5.20;;
31728;SDS011;18309;43.658;1.312;2023-07-29T05:36:10;11.27;;;5.95;;
31728;SDS011;18309;43.658;1.312;2023-07-29T05:38:36;11.55;;;6.70;;
31728;SDS011;18309;43.658;1.312;2023-07-29T05:41:02;18.80;;;7.82;;
31728;SDS011;18309;43.658;1.312;2023-07-29T05:43:27;13.00;;;8.05;;
31728;SDS011;18309;43.658;1.312;2023-07-29T05:45:53;12.52;;;7.10;;
31728;SDS011;18309;43.658;1.312;2023-07-29T05:48:19;12.38;;;6.90;;
31728;SDS011;18309;43.658;1.312;2023-07-29T05:50:45;8.52;;;5.93;;
31728;SDS011;18309;43.658;1.312;2023-07-29T05:53:11;7.85;;;5.78;;
31728;SDS011;18309;43.658;1.312;2023-07-29T05:55:38;10.23;;;5.35;;
31728;SDS011;18309;43.658;1.312;2023-07-29T05:58:03;9.90;;;5.63;;
31728;SDS011;18309;43.658;1.312;2023-07-29T06:00:29;13.15;;;5.20;;
31728;SDS011;18309;43.658;1.312;2023-07-29T06:02:55;12.07;;;5.15;;
31728;SDS011;18309;43.658;1.312;2023-07-29T06:05:20;9.05;;;5.30;;
31728;SDS011;18309;43.658;1.312;2023-07-29T06:07:46;15.35;;;4.95;;
31728;SDS011;18309;43.658;1.312;2023-07-29T06:10:13;8.70;;;5.28;;
31728;SDS011;18309;43.658;1.312;2023-07-29T06:12:43;9.23;;;5.18;;
31728;SDS011;18309;43.658;1.312;2023-07-29T06:15:13;14.00;;;5.22;;
31728;SDS011;18309;43.658;1.312;2023-07-29T06:17:39;12.43;;;5.10;;
31728;SDS011;18309;43.658;1.312;2023-07-29T06:20:06;13.00;;;5.30;;
31728;SDS011;18309;43.658;1.312;2023-07-29T06:22:32;10.48;;;5.03;;
31728;SDS011;18309;43.658;1.312;2023-07-29T06:24:57;10.68;;;5.10;;
31728;SDS011;18309;43.658;1.312;2023-07-29T06:27:23;16.35;;;5.38;;
31728;SDS011;18309;43.658;1.312;2023-07-29T06:29:50;8.70;;;5.40;;
31728;SDS011;18309;43.658;1.312;2023-07-29T06:32:16;8.07;;;4.85;;
31728;SDS011;18309;43.658;1.312;2023-07-29T06:34:41;10.18;;;4.50;;
31728;SDS011;18309;43.658;1.312;2023-07-29T06:37:07;11.00;;;4.82;;
31728;SDS011;18309;43.658;1.312;2023-07-29T06:39:33;11.65;;;5.13;;
31728;SDS011;18309;43.658;1.312;2023-07-29T06:41:58;10.30;;;5.40;;
31728;SDS011;18309;43.658;1.312;2023-07-29T06:44:24;9.20;;;5.05;;
31728;SDS011;18309;43.658;1.312;2023-07-29T06:46:50;11.05;;;5.32;;
31728;SDS011;18309;43.658;1.312;2023-07-29T06:49:15;13.95;;;4.68;;
31728;SDS011;18309;43.658;1.312;2023-07-29T06:51:41;9.65;;;4.32;;
31728;SDS011;18309;43.658;1.312;2023-07-29T06:54:07;15.05;;;5.05;;
31728;SDS011;18309;43.658;1.312;2023-07-29T06:56:32;12.63;;;4.10;;
31728;SDS011;18309;43.658;1.312;2023-07-29T06:58:58;9.77;;;4.35;;
31728;SDS011;18309;43.658;1.312;2023-07-29T07:01:23;9.10;;;4.10;;
31728;SDS011;18309;43.658;1.312;2023-07-29T07:03:49;10.25;;;4.25;;
31728;SDS011;18309;43.658;1.312;2023-07-29T07:06:15;9.68;;;4.47;;
31728;SDS011;18309;43.658;1.312;2023-07-29T07:08:40;7.47;;;4.00;;
31728;SDS011;18309;43.658;1.312;2023-07-29T07:11:06;8.63;;;4.47;;
31728;SDS011;18309;43.658;1.312;2023-07-29T07:13:33;11.15;;;4.20;;
31728;SDS011;18309;43.658;1.312;2023-07-29T07:15:59;7.30;;;4.53;;
31728;SDS011;18309;43.658;1.312;2023-07-29T07:18:24;10.27;;;4.57;;
31728;SDS011;18309;43.658;1.312;2023-07-29T07:20:51;10.02;;;4.32;;
31728;SDS011;18309;43.658;1.312;2023-07-29T07:23:17;9.63;;;4.68;;
31728;SDS011;18309;43.658;1.312;2023-07-29T07:25:44;7.72;;;4.45;;
31728;SDS011;18309;43.658;1.312;2023-07-29T07:28:10;11.45;;;4.53;;
31728;SDS011;18309;43.658;1.312;2023-07-29T07:30:39;11.00;;;5.07;;
31728;SDS011;18309;43.658;1.312;2023-07-29T07:33:06;8.55;;;4.60;;
31728;SDS011;18309;43.658;1.312;2023-07-29T07:35:32;13.40;;;4.65;;
31728;SDS011;18309;43.658;1.312;2023-07-29T07:37:58;10.23;;;4.30;;
31728;SDS011;18309;43.658;1.312;2023-07-29T07:40:26;9.57;;;4.68;;
31728;SDS011;18309;43.658;1.312;2023-07-29T07:42:52;11.13;;;5.40;;
31728;SDS011;18309;43.658;1.312;2023-07-29T07:45:19;10.50;;;4.75;;
31728;SDS011;18309;43.658;1.312;2023-07-29T07:47:44;7.75;;;4.65;;
31728;SDS011;18309;43.658;1.312;2023-07-29T07:50:10;12.07;;;4.93;;
31728;SDS011;18309;43.658;1.312;2023-07-29T07:52:36;10.88;;;4.68;;
31728;SDS011;18309;43.658;1.312;2023-07-29T07:55:02;11.13;;;4.63;;
31728;SDS011;18309;43.658;1.312;2023-07-29T07:57:27;10.88;;;4.82;;
31728;SDS011;18309;43.658;1.312;2023-07-29T07:59:53;17.63;;;4.63;;
31728;SDS011;18309;43.658;1.312;2023-07-29T08:02:19;7.82;;;4.45;;
31728;SDS011;18309;43.658;1.312;2023-07-29T08:04:45;12.55;;;4.45;;
31728;SDS011;18309;43.658;1.312;2023-07-29T08:07:11;15.93;;;4.70;;
31728;SDS011;18309;43.658;1.312;2023-07-29T08:09:36;11.23;;;4.72;;
31728;SDS011;18309;43.658;1.312;2023-07-29T08:12:02;14.27;;;4.60;;
31728;SDS011;18309;43.658;1.312;2023-07-29T08:14:28;7.63;;;4.15;;
31728;SDS011;18309;43.658;1.312;2023-07-29T08:16:54;6.80;;;4.43;;
31728;SDS011;18309;43.658;1.312;2023-07-29T08:19:19;11.70;;;7.00;;
31728;SDS011;18309;43.658;1.312;2023-07-29T08:21:45;8.77;;;4.75;;
31728;SDS011;18309;43.658;1.312;2023-07-29T08:24:10;8.65;;;4.57;;
31728;SDS011;18309;43.658;1.312;2023-07-29T08:26:36;11.30;;;5.20;;
31728;SDS011;18309;43.658;1.312;2023-07-29T08:29:02;11.35;;;4.28;;
31728;SDS011;18309;43.658;1.312;2023-07-29T08:31:28;11.18;;;4.40;;
31728;SDS011;18309;43.658;1.312;2023-07-29T08:33:53;11.35;;;4.25;;
31728;SDS011;18309;43.658;1.312;2023-07-29T08:36:19;14.75;;;4.45;;
31728;SDS011;18309;43.658;1.312;2023-07-29T08:38:45;9.57;;;4.40;;
31728;SDS011;18309;43.658;1.312;2023-07-29T08:41:21;7.32;;;4.35;;
31728;SDS011;18309;43.658;1.312;2023-07-29T08:44:02;6.03;;;4.35;;
31728;SDS011;18309;43.658;1.312;2023-07-29T08:46:35;7.68;;;4.78;;
31728;SDS011;18309;43.658;1.312;2023-07-29T08:49:02;6.85;;;4.25;;
31728;SDS011;18309;43.658;1.312;2023-07-29T08:51:28;14.45;;;3.63;;
31728;SDS011;18309;43.658;1.312;2023-07-29T08:53:56;8.52;;;4.00;;
31728;SDS011;18309;43.658;1.312;2023-07-29T08:56:23;10.70;;;4.30;;
31728;SDS011;18309;43.658;1.312;2023-07-29T08:58:49;8.30;;;5.03;;
31728;SDS011;18309;43.658;1.312;2023-07-29T09:01:15;5.95;;;3.90;;
31728;SDS011;18309;43.658;1.312;2023-07-29T09:03:41;9.07;;;4.45;;
31728;SDS011;18309;43.658;1.312;2023-07-29T09:06:07;8.15;;;3.78;;
31728;SDS011;18309;43.658;1.312;2023-07-29T09:08:33;6.20;;;3.65;;
31728;SDS011;18309;43.658;1.312;2023-07-29T09:10:59;10.38;;;3.88;;
31728;SDS011;18309;43.658;1.312;2023-07-29T09:13:25;8.90;;;4.07;;
31728;SDS011;18309;43.658;1.312;2023-07-29T09:15:55;11.68;;;4.38;;
31728;SDS011;18309;43.658;1.312;2023-07-29T09:18:22;9.55;;;4.15;;
31728;SDS011;18309;43.658;1.312;2023-07-29T09:20:49;10.32;;;4.75;;
31728;SDS011;18309;43.658;1.312;2023-07-29T09:23:15;13.63;;;5.20;;
31728;SDS011;18309;43.658;1.312;2023-07-29T09:25:41;13.27;;;4.90;;
31728;SDS011;18309;43.658;1.312;2023-07-29T09:28:14;10.50;;;4.20;;
31728;SDS011;18309;43.658;1.312;2023-07-29T09:30:41;8.43;;;3.78;;
31728;SDS011;18309;43.658;1.312;2023-07-29T09:33:10;5.32;;;3.85;;
31728;SDS011;18309;43.658;1.312;2023-07-29T09:35:36;7.65;;;4.03;;
31728;SDS011;18309;43.658;1.312;2023-07-29T09:38:03;9.57;;;4.20;;
31728;SDS011;18309;43.658;1.312;2023-07-29T09:40:36;8.23;;;4.15;;
31728;SDS011;18309;43.658;1.312;2023-07-29T09:43:04;8.52;;;3.58;;
31728;SDS011;18309;43.658;1.312;2023-07-29T09:45:31;5.80;;;3.97;;
31728;SDS011;18309;43.658;1.312;2023-07-29T09:47:59;9.15;;;3.75;;
31728;SDS011;18309;43.658;1.312;2023-07-29T09:50:25;7.47;;;4.10;;
31728;SDS011;18309;43.658;1.312;2023-07-29T09:52:53;5.60;;;3.78;;
31728;SDS011;18309;43.658;1.312;2023-07-29T09:55:23;5.10;;;3.63;;
31728;SDS011;18309;43.658;1.312;2023-07-29T09:57:52;9.55;;;3.58;;
31728;SDS011;18309;43.658;1.312;2023-07-29T10:00:24;8.40;;;3.92;;
31728;SDS011;18309;43.658;1.312;2023-07-29T10:02:50;10.00;;;4.15;;
31728;SDS011;18309;43.658;1.312;2023-07-29T10:05:17;5.43;;;4.10;;
31728;SDS011;18309;43.658;1.312;2023-07-29T10:07:42;11.25;;;3.42;;
31728;SDS011;18309;43.658;1.312;2023-07-29T10:10:09;5.38;;;3.33;;
31728;SDS011;18309;43.658;1.312;2023-07-29T10:12:36;7.18;;;4.22;;
31728;SDS011;18309;43.658;1.312;2023-07-29T10:15:05;4.93;;;3.63;;
31728;SDS011;18309;43.658;1.312;2023-07-29T10:17:35;6.60;;;4.10;;
31728;SDS011;18309;43.658;1.312;2023-07-29T10:22:40;5.97;;;3.78;;
31728;SDS011;18309;43.658;1.312;2023-07-29T10:25:07;8.80;;;4.45;;
31728;SDS011;18309;43.658;1.312;2023-07-29T10:27:55;7.82;;;3.75;;
31728;SDS011;18309;43.658;1.312;2023-07-29T10:30:24;10.90;;;3.55;;
31728;SDS011;18309;43.658;1.312;2023-07-29T10:32:50;11.18;;;4.00;;
31728;SDS011;18309;43.658;1.312;2023-07-29T10:35:18;7.53;;;3.90;;
31728;SDS011;18309;43.658;1.312;2023-07-29T10:37:44;5.57;;;4.13;;
31728;SDS011;18309;43.658;1.312;2023-07-29T10:40:11;6.47;;;3.83;;
31728;SDS011;18309;43.658;1.312;2023-07-29T10:42:37;6.15;;;4.07;;
31728;SDS011;18309;43.658;1.312;2023-07-29T10:45:19;8.55;;;4.47;;
31728;SDS011;18309;43.658;1.312;2023-07-29T10:47:46;9.68;;;4.13;;
31728;SDS011;18309;43.658;1.312;2023-07-29T10:50:17;7.70;;;4.25;;
31728;SDS011;18309;43.658;1.312;2023-07-29T10:52:46;7.63;;;3.55;;
31728;SDS011;18309;43.658;1.312;2023-07-29T10:55:48;10.27;;;3.78;;
31728;SDS011;18309;43.658;1.312;2023-07-29T10:58:11;8.38;;;4.15;;
31728;SDS011;18309;43.658;1.312;2023-07-29T11:00:40;6.90;;;3.97;;
31728;SDS011;18309;43.658;1.312;2023-07-29T11:03:07;8.13;;;3.78;;
31728;SDS011;18309;43.658;1.312;2023-07-29T11:11:03;11.10;;;4.25;;
31728;SDS011;18309;43.658;1.312;2023-07-29T11:13:30;9.23;;;4.03;;
31728;SDS011;18309;43.658;1.312;2023-07-29T11:15:58;6.00;;;3.97;;
31728;SDS011;18309;43.658;1.312;2023-07-29T11:18:31;6.75;;;3.45;;
31728;SDS011;18309;43.658;1.312;2023-07-29T11:21:02;10.48;;;3.67;;
31728;SDS011;18309;43.658;1.312;2023-07-29T11:23:32;4.03;;;3.42;;
31728;SDS011;18309;43.658;1.312;2023-07-29T11:26:00;4.97;;;3.38;;
31728;SDS011;18309;43.658;1.312;2023-07-29T11:28:27;8.80;;;3.58;;
31728;SDS011;18309;43.658;1.312;2023-07-29T11:30:53;5.82;;;3.33;;
31728;SDS011;18309;43.658;1.312;2023-07-29T11:33:20;5.53;;;3.33;;
31728;SDS011;18309;43.658;1.312;2023-07-29T11:35:47;8.30;;;4.20;;
31728;SDS011;18309;43.658;1.312;2023-07-29T11:38:17;9.18;;;4.10;;
31728;SDS011;18309;43.658;1.312;2023-07-29T11:40:52;5.78;;;3.80;;
31728;SDS011;18309;43.658;1.312;2023-07-29T11:43:23;6.65;;;3.60;;
31728;SDS011;18309;43.658;1.312;2023-07-29T11:45:48;4.82;;;3.50;;
31728;SDS011;18309;43.658;1.312;2023-07-29T11:48:14;4.93;;;3.60;;
31728;SDS011;18309;43.658;1.312;2023-07-29T11:50:40;10.85;;;4.72;;
31728;SDS011;18309;43.658;1.312;2023-07-29T11:53:06;8.38;;;3.70;;
31728;SDS011;18309;43.658;1.312;2023-07-29T11:55:32;3.78;;;3.30;;
31728;SDS011;18309;43.658;1.312;2023-07-29T11:57:59;5.70;;;3.22;;
31728;SDS011;18309;43.658;1.312;2023-07-29T12:00:27;6.88;;;3.20;;
31728;SDS011;18309;43.658;1.312;2023-07-29T12:02:53;7.65;;;3.90;;
31728;SDS011;18309;43.658;1.312;2023-07-29T12:05:20;3.78;;;2.88;;
31728;SDS011;18309;43.658;1.312;2023-07-29T12:07:47;8.35;;;4.18;;
31728;SDS011;18309;43.658;1.312;2023-07-29T12:10:13;15.25;;;3.60;;
31728;SDS011;18309;43.658;1.312;2023-07-29T12:12:45;6.28;;;3.30;;
31728;SDS011;18309;43.658;1.312;2023-07-29T12:15:24;5.07;;;2.97;;
31728;SDS011;18309;43.658;1.312;2023-07-29T12:17:58;3.65;;;2.67;;
31728;SDS011;18309;43.658;1.312;2023-07-29T12:20:25;5.60;;;3.00;;
31728;SDS011;18309;43.658;1.312;2023-07-29T12:22:52;4.15;;;2.55;;
31728;SDS011;18309;43.658;1.312;2023-07-29T12:25:21;10.02;;;3.30;;
31728;SDS011;18309;43.658;1.312;2023-07-29T12:27:49;8.90;;;2.97;;
31728;SDS011;18309;43.658;1.312;2023-07-29T12:30:15;5.65;;;3.72;;
31728;SDS011;18309;43.658;1.312;2023-07-29T12:32:45;8.60;;;4.55;;
31728;SDS011;18309;43.658;1.312;2023-07-29T12:35:11;4.53;;;2.97;;
31728;SDS011;18309;43.658;1.312;2023-07-29T12:37:38;7.35;;;3.65;;
31728;SDS011;18309;43.658;1.312;2023-07-29T12:42:50;9.65;;;3.47;;
31728;SDS011;18309;43.658;1.312;2023-07-29T12:45:18;5.17;;;3.27;;
31728;SDS011;18309;43.658;1.312;2023-07-29T12:47:48;5.13;;;3.42;;
31728;SDS011;18309;43.658;1.312;2023-07-29T12:50:14;4.00;;;2.88;;
31728;SDS011;18309;43.658;1.312;2023-07-29T12:52:39;4.50;;;3.00;;
31728;SDS011;18309;43.658;1.312;2023-07-29T12:55:05;4.65;;;3.08;;
31728;SDS011;18309;43.658;1.312;2023-07-29T12:57:33;6.97;;;3.28;;
31728;SDS011;18309;43.658;1.312;2023-07-29T13:00:00;6.53;;;3.15;;
31728;SDS011;18309;43.658;1.312;2023-07-29T13:02:25;6.05;;;3.20;;
31728;SDS011;18309;43.658;1.312;2023-07-29T13:04:51;8.50;;;3.40;;
31728;SDS011;18309;43.658;1.312;2023-07-29T13:07:17;8.05;;;3.58;;
31728;SDS011;18309;43.658;1.312;2023-07-29T13:09:43;4.93;;;3.13;;
31728;SDS011;18309;43.658;1.312;2023-07-29T13:12:08;9.35;;;3.75;;
31728;SDS011;18309;43.658;1.312;2023-07-29T13:14:34;4.82;;;3.33;;
31728;SDS011;18309;43.658;1.312;2023-07-29T13:17:00;5.03;;;3.20;;
31728;SDS011;18309;43.658;1.312;2023-07-29T13:19:25;9.90;;;3.67;;
31728;SDS011;18309;43.658;1.312;2023-07-29T13:21:51;5.88;;;3.20;;
31728;SDS011;18309;43.658;1.312;2023-07-29T13:24:17;5.40;;;3.42;;
31728;SDS011;18309;43.658;1.312;2023-07-29T13:26:42;5.50;;;3.38;;
31728;SDS011;18309;43.658;1.312;2023-07-29T13:29:08;6.72;;;3.60;;
31728;SDS011;18309;43.658;1.312;2023-07-29T13:31:36;6.38;;;3.78;;
31728;SDS011;18309;43.658;1.312;2023-07-29T13:34:02;12.50;;;3.40;;
31728;SDS011;18309;43.658;1.312;2023-07-29T13:36:28;5.90;;;3.40;;
31728;SDS011;18309;43.658;1.312;2023-07-29T13:38:54;6.88;;;3.15;;
31728;SDS011;18309;43.658;1.312;2023-07-29T13:41:20;7.88;;;3.47;;
31728;SDS011;18309;43.658;1.312;2023-07-29T13:43:45;5.63;;;3.67;;
31728;SDS011;18309;43.658;1.312;2023-07-29T13:46:11;4.75;;;3.72;;
31728;SDS011;18309;43.658;1.312;2023-07-29T13:48:37;7.50;;;3.60;;
31728;SDS011;18309;43.658;1.312;2023-07-29T13:51:03;5.63;;;3.70;;
31728;SDS011;18309;43.658;1.312;2023-07-29T13:53:29;8.20;;;3.45;;
31728;SDS011;18309;43.658;1.312;2023-07-29T13:55:55;13.73;;;3.80;;
31728;SDS011;18309;43.658;1.312;2023-07-29T13:58:22;8.73;;;3.95;;
31728;SDS011;18309;43.658;1.312;2023-07-29T14:00:49;6.97;;;3.83;;
31728;SDS011;18309;43.658;1.312;2023-07-29T14:03:14;7.22;;;4.13;;
31728;SDS011;18309;43.658;1.312;2023-07-29T14:05:40;7.35;;;3.30;;
31728;SDS011;18309;43.658;1.312;2023-07-29T14:08:06;5.18;;;3.33;;
31728;SDS011;18309;43.658;1.312;2023-07-29T14:10:31;7.93;;;3.95;;
31728;SDS011;18309;43.658;1.312;2023-07-29T14:12:57;4.93;;;3.10;;
31728;SDS011;18309;43.658;1.312;2023-07-29T14:15:23;6.68;;;3.38;;
31728;SDS011;18309;43.658;1.312;2023-07-29T14:17:48;6.47;;;3.80;;
31728;SDS011;18309;43.658;1.312;2023-07-29T14:20:14;6.03;;;3.75;;
31728;SDS011;18309;43.658;1.312;2023-07-29T14:22:40;9.90;;;4.00;;
31728;SDS011;18309;43.658;1.312;2023-07-29T14:25:06;4.95;;;3.97;;
31728;SDS011;18309;43.658;1.312;2023-07-29T14:27:32;6.50;;;3.85;;
31728;SDS011;18309;43.658;1.312;2023-07-29T14:29:58;7.00;;;3.45;;
31728;SDS011;18309;43.658;1.312;2023-07-29T14:32:24;18.50;;;4.10;;
31728;SDS011;18309;43.658;1.312;2023-07-29T14:34:49;6.10;;;3.05;;
31728;SDS011;18309;43.658;1.312;2023-07-29T14:37:15;6.60;;;3.50;;
31728;SDS011;18309;43.658;1.312;2023-07-29T14:39:41;7.18;;;2.95;;
31728;SDS011;18309;43.658;1.312;2023-07-29T14:42:06;6.22;;;3.38;;
31728;SDS011;18309;43.658;1.312;2023-07-29T14:44:33;7.65;;;3.63;;
31728;SDS011;18309;43.658;1.312;2023-07-29T14:46:59;7.50;;;3.17;;
31728;SDS011;18309;43.658;1.312;2023-07-29T14:49:24;5.28;;;3.28;;
31728;SDS011;18309;43.658;1.312;2023-07-29T14:51:50;4.00;;;3.35;;
31728;SDS011;18309;43.658;1.312;2023-07-29T14:54:16;4.50;;;3.10;;
31728;SDS011;18309;43.658;1.312;2023-07-29T14:56:41;5.47;;;3.33;;
31728;SDS011;18309;43.658;1.312;2023-07-29T14:59:07;8.05;;;3.78;;